sensor_id;sensor_type;location;lat;lon;timestamp;pressure;altitude;pressure_sealevel;temperature;humidity
55590;BME280;41452;42.780;23.116;2023-02-28T00:00:46;94767.75;;;4.68;100.00
55590;BME280;41452;42.780;23.116;2023-02-28T00:03:11;94784.50;;;4.80;100.00
55590;BME280;41452;42.780;23.116;2023-02-28T00:05:37;94799.19;;;4.88;100.00
55590;BME280;41452;42.780;23.116;2023-02-28T00:08:02;94804.31;;;4.81;100.00
55590;BME280;41452;42.780;23.116;2023-02-28T00:10:30;94798.78;;;4.54;100.00
55590;BME280;41452;42.780;23.116;2023-02-28T00:13:01;94811.78;;;4.54;100.00
55590;BME280;41452;42.780;23.116;2023-02-28T00:15:27;94809.31;;;4.46;100.00
55590;BME280;41452;42.780;23.116;2023-02-28T00:17:52;94804.97;;;4.38;100.00
55590;BME280;41452;42.780;23.116;2023-02-28T00:20:18;94793.25;;;4.28;100.00
55590;BME280;41452;42.780;23.116;2023-02-28T00:22:46;94823.19;;;4.24;100.00
55590;BME280;41452;42.780;23.116;2023-02-28T00:25:13;94832.97;;;4.36;100.00
55590;BME280;41452;42.780;23.116;2023-02-28T00:27:40;94834.03;;;4.12;100.00
55590;BME280;41452;42.780;23.116;2023-02-28T00:30:08;94834.66;;;4.29;100.00
55590;BME280;41452;42.780;23.116;2023-02-28T00:32:33;94819.69;;;4.16;100.00
55590;BME280;41452;42.780;23.116;2023-02-28T00:35:00;94830.44;;;3.98;100.00
55590;BME280;41452;42.780;23.116;2023-02-28T00:37:25;94831.25;;;4.14;100.00
55590;BME280;41452;42.780;23.116;2023-02-28T00:39:51;94836.00;;;4.10;100.00
55590;BME280;41452;42.780;23.116;2023-02-28T00:42:16;94829.47;;;4.14;100.00
55590;BME280;41452;42.780;23.116;2023-02-28T00:44:42;94790.34;;;3.78;100.00
55590;BME280;41452;42.780;23.116;2023-02-28T00:47:07;94826.38;;;3.96;100.00
55590;BME280;41452;42.780;23.116;2023-02-28T00:49:32;94824.63;;;4.11;100.00
55590;BME280;41452;42.780;23.116;2023-02-28T00:51:58;94823.81;;;4.11;100.00
55590;BME280;41452;42.780;23.116;2023-02-28T00:54:23;94830.72;;;4.18;100.00
55590;BME280;41452;42.780;23.116;2023-02-28T00:56:49;94829.19;;;4.24;100.00
55590;BME280;41452;42.780;23.116;2023-02-28T00:59:16;94831.97;;;4.23;100.00
55590;BME280;41452;42.780;23.116;2023-02-28T01:01:42;94830.91;;;4.17;100.00
55590;BME280;41452;42.780;23.116;2023-02-28T01:04:08;94828.28;;;4.17;100.00
55590;BME280;41452;42.780;23.116;2023-02-28T01:06:33;94817.44;;;4.13;100.00
55590;BME280;41452;42.780;23.116;2023-02-28T01:08:59;94811.06;;;4.01;100.00
55590;BME280;41452;42.780;23.116;2023-02-28T01:11:24;94821.41;;;4.09;100.00
55590;BME280;41452;42.780;23.116;2023-02-28T01:13:50;94798.47;;;3.98;100.00
55590;BME280;41452;42.780;23.116;2023-02-28T01:16:15;94823.38;;;4.22;100.00
55590;BME280;41452;42.780;23.116;2023-02-28T01:18:41;94816.56;;;4.21;100.00
55590;BME280;41452;42.780;23.116;2023-02-28T01:21:10;94798.97;;;4.08;100.00
55590;BME280;41452;42.780;23.116;2023-02-28T01:23:36;94820.88;;;4.29;100.00
55590;BME280;41452;42.780;23.116;2023-02-28T01:26:16;94821.16;;;4.34;100.00
55590;BME280;41452;42.780;23.116;2023-02-28T01:28:42;94788.78;;;4.22;100.00
55590;BME280;41452;42.780;23.116;2023-02-28T01:31:08;94803.75;;;4.34;100.00
55590;BME280;41452;42.780;23.116;2023-02-28T01:33:34;94812.97;;;4.37;100.00
55590;BME280;41452;42.780;23.116;2023-02-28T01:36:13;94801.22;;;4.41;100.00
55590;BME280;41452;42.780;23.116;2023-02-28T01:38:39;94796.66;;;4.43;100.00
55590;BME280;41452;42.780;23.116;2023-02-28T01:41:06;94805.69;;;4.47;100.00
55590;BME280;41452;42.780;23.116;2023-02-28T01:43:53;94800.66;;;4.46;100.00
55590;BME280;41452;42.780;23.116;2023-02-28T01:46:19;94803.28;;;4.61;100.00
55590;BME280;41452;42.780;23.116;2023-02-28T01:48:54;94804.44;;;4.58;100.00
55590;BME280;41452;42.780;23.116;2023-02-28T01:54:16;94805.53;;;4.64;100.00
55590;BME280;41452;42.780;23.116;2023-02-28T01:56:47;94810.97;;;4.69;100.00
55590;BME280;41452;42.780;23.116;2023-02-28T01:59:20;94800.50;;;4.62;100.00
55590;BME280;41452;42.780;23.116;2023-02-28T02:01:47;94806.16;;;4.66;100.00
55590;BME280;41452;42.780;23.116;2023-02-28T02:04:13;94819.03;;;4.74;100.00
55590;BME280;41452;42.780;23.116;2023-02-28T02:06:42;94814.72;;;4.81;100.00
55590;BME280;41452;42.780;23.116;2023-02-28T02:09:08;94819.66;;;4.76;100.00
55590;BME280;41452;42.780;23.116;2023-02-28T02:11:34;94821.44;;;4.75;100.00
55590;BME280;41452;42.780;23.116;2023-02-28T02:27:49;94803.28;;;4.97;100.00
55590;BME280;41452;42.780;23.116;2023-02-28T02:38:25;94815.13;;;5.00;100.00
55590;BME280;41452;42.780;23.116;2023-02-28T02:43:33;94786.84;;;4.97;100.00
55590;BME280;41452;42.780;23.116;2023-02-28T02:46:14;94797.53;;;5.02;100.00
55590;BME280;41452;42.780;23.116;2023-02-28T02:48:43;94810.00;;;5.06;100.00
55590;BME280;41452;42.780;23.116;2023-02-28T02:51:14;94816.63;;;5.09;100.00
55590;BME280;41452;42.780;23.116;2023-02-28T02:53:50;94795.66;;;4.95;100.00
55590;BME280;41452;42.780;23.116;2023-02-28T02:56:19;94796.91;;;5.00;100.00
55590;BME280;41452;42.780;23.116;2023-02-28T02:58:48;94798.75;;;5.06;100.00
55590;BME280;41452;42.780;23.116;2023-02-28T03:01:18;94823.94;;;5.20;100.00
55590;BME280;41452;42.780;23.116;2023-02-28T03:03:58;94823.94;;;5.20;100.00
55590;BME280;41452;42.780;23.116;2023-02-28T03:06:25;94819.13;;;5.17;100.00
55590;BME280;41452;42.780;23.116;2023-02-28T03:08:51;94820.53;;;5.20;100.00
55590;BME280;41452;42.780;23.116;2023-02-28T03:11:16;94824.56;;;5.22;100.00
55590;BME280;41452;42.780;23.116;2023-02-28T03:16:29;94830.41;;;5.24;100.00
55590;BME280;41452;42.780;23.116;2023-02-28T03:24:49;94802.03;;;4.93;100.00
55590;BME280;41452;42.780;23.116;2023-02-28T03:29:51;94849.72;;;5.15;100.00
55590;BME280;41452;42.780;23.116;2023-02-28T03:33:19;94850.72;;;5.14;100.00
55590;BME280;41452;42.780;23.116;2023-02-28T03:35:41;94850.38;;;5.17;100.00
55590;BME280;41452;42.780;23.116;2023-02-28T03:38:25;94827.41;;;5.06;100.00
55590;BME280;41452;42.780;23.116;2023-02-28T03:41:01;94857.63;;;5.22;100.00
55590;BME280;41452;42.780;23.116;2023-02-28T03:43:34;94812.09;;;4.96;100.00
55590;BME280;41452;42.780;23.116;2023-02-28T03:46:05;94847.50;;;5.12;100.00
55590;BME280;41452;42.780;23.116;2023-02-28T03:48:49;94862.25;;;5.05;100.00
55590;BME280;41452;42.780;23.116;2023-02-28T03:51:19;94863.84;;;5.06;100.00
55590;BME280;41452;42.780;23.116;2023-02-28T03:54:05;94864.59;;;5.00;100.00
55590;BME280;41452;42.780;23.116;2023-02-28T03:56:42;94874.47;;;4.89;100.00
55590;BME280;41452;42.780;23.116;2023-02-28T03:59:28;94877.44;;;4.86;100.00
55590;BME280;41452;42.780;23.116;2023-02-28T04:01:57;94876.00;;;4.84;100.00
55590;BME280;41452;42.780;23.116;2023-02-28T04:04:23;94867.13;;;4.78;100.00
55590;BME280;41452;42.780;23.116;2023-02-28T04:06:51;94870.34;;;4.80;100.00
55590;BME280;41452;42.780;23.116;2023-02-28T04:09:17;94869.75;;;4.78;100.00
55590;BME280;41452;42.780;23.116;2023-02-28T04:11:50;94874.13;;;4.78;100.00
55590;BME280;41452;42.780;23.116;2023-02-28T04:14:20;94887.69;;;4.73;100.00
55590;BME280;41452;42.780;23.116;2023-02-28T04:16:46;94861.22;;;4.54;100.00
55590;BME280;41452;42.780;23.116;2023-02-28T04:19:13;94873.16;;;4.64;100.00
55590;BME280;41452;42.780;23.116;2023-02-28T04:21:40;94887.88;;;4.71;100.00
55590;BME280;41452;42.780;23.116;2023-02-28T04:24:08;94866.25;;;4.56;100.00
55590;BME280;41452;42.780;23.116;2023-02-28T04:26:36;94887.66;;;4.58;100.00
55590;BME280;41452;42.780;23.116;2023-02-28T04:29:04;94892.06;;;4.57;100.00
55590;BME280;41452;42.780;23.116;2023-02-28T04:31:29;94844.91;;;4.31;100.00
55590;BME280;41452;42.780;23.116;2023-02-28T04:33:55;94865.34;;;4.34;100.00
55590;BME280;41452;42.780;23.116;2023-02-28T04:36:21;94880.50;;;4.45;100.00
55590;BME280;41452;42.780;23.116;2023-02-28T04:38:48;94886.78;;;4.51;100.00
55590;BME280;41452;42.780;23.116;2023-02-28T04:41:15;94894.06;;;4.55;100.00
55590;BME280;41452;42.780;23.116;2023-02-28T04:43:40;94893.25;;;4.55;100.00
55590;BME280;41452;42.780;23.116;2023-02-28T04:46:06;94851.63;;;4.25;100.00
55590;BME280;41452;42.780;23.116;2023-02-28T04:48:34;94896.13;;;4.60;100.00
55590;BME280;41452;42.780;23.116;2023-02-28T04:51:01;94891.25;;;4.72;100.00
55590;BME280;41452;42.780;23.116;2023-02-28T04:53:27;94875.22;;;4.68;100.00
55590;BME280;41452;42.780;23.116;2023-02-28T04:55:54;94856.53;;;4.65;100.00
55590;BME280;41452;42.780;23.116;2023-02-28T04:58:19;94887.31;;;4.91;100.00
55590;BME280;41452;42.780;23.116;2023-02-28T05:00:48;94889.34;;;4.95;100.00
55590;BME280;41452;42.780;23.116;2023-02-28T05:03:13;94875.56;;;4.80;100.00
55590;BME280;41452;42.780;23.116;2023-02-28T05:05:39;94898.44;;;4.85;100.00
55590;BME280;41452;42.780;23.116;2023-02-28T05:08:04;94898.97;;;4.80;100.00
55590;BME280;41452;42.780;23.116;2023-02-28T05:10:30;94906.69;;;4.73;100.00
55590;BME280;41452;42.780;23.116;2023-02-28T05:12:56;94909.81;;;4.69;100.00
55590;BME280;41452;42.780;23.116;2023-02-28T05:15:21;94907.34;;;4.61;100.00
55590;BME280;41452;42.780;23.116;2023-02-28T05:17:46;94908.03;;;4.54;100.00
55590;BME280;41452;42.780;23.116;2023-02-28T05:20:12;94906.16;;;4.48;100.00
55590;BME280;41452;42.780;23.116;2023-02-28T05:22:39;94907.75;;;4.49;100.00
55590;BME280;41452;42.780;23.116;2023-02-28T05:25:04;94923.91;;;4.60;100.00
55590;BME280;41452;42.780;23.116;2023-02-28T05:27:30;94921.31;;;4.60;100.00
55590;BME280;41452;42.780;23.116;2023-02-28T05:29:56;94905.72;;;4.60;100.00
55590;BME280;41452;42.780;23.116;2023-02-28T05:32:21;94927.25;;;4.68;100.00
55590;BME280;41452;42.780;23.116;2023-02-28T05:34:47;94924.19;;;4.65;100.00
55590;BME280;41452;42.780;23.116;2023-02-28T05:37:13;94934.25;;;4.68;100.00
55590;BME280;41452;42.780;23.116;2023-02-28T05:39:39;94916.56;;;4.63;100.00
55590;BME280;41452;42.780;23.116;2023-02-28T05:42:04;94913.22;;;4.54;100.00
55590;BME280;41452;42.780;23.116;2023-02-28T05:44:30;94934.78;;;4.63;100.00
55590;BME280;41452;42.780;23.116;2023-02-28T05:46:55;94915.31;;;4.59;100.00
55590;BME280;41452;42.780;23.116;2023-02-28T05:49:21;94934.41;;;4.81;100.00
55590;BME280;41452;42.780;23.116;2023-02-28T05:51:46;94940.28;;;4.83;100.00
55590;BME280;41452;42.780;23.116;2023-02-28T05:54:12;94933.78;;;4.79;100.00
55590;BME280;41452;42.780;23.116;2023-02-28T05:56:37;94941.06;;;4.69;100.00
55590;BME280;41452;42.780;23.116;2023-02-28T05:59:05;94942.75;;;4.62;100.00
55590;BME280;41452;42.780;23.116;2023-02-28T06:01:36;94936.75;;;4.61;100.00
55590;BME280;41452;42.780;23.116;2023-02-28T06:04:03;94939.81;;;4.65;100.00
55590;BME280;41452;42.780;23.116;2023-02-28T06:06:29;94942.06;;;4.68;100.00
55590;BME280;41452;42.780;23.116;2023-02-28T06:08:55;94905.16;;;4.49;100.00
55590;BME280;41452;42.780;23.116;2023-02-28T06:11:21;94937.47;;;4.70;100.00
55590;BME280;41452;42.780;23.116;2023-02-28T06:13:54;94909.03;;;4.53;100.00
55590;BME280;41452;42.780;23.116;2023-02-28T06:16:20;94943.94;;;4.74;100.00
55590;BME280;41452;42.780;23.116;2023-02-28T06:18:45;94920.06;;;4.55;100.00
55590;BME280;41452;42.780;23.116;2023-02-28T06:21:12;94946.97;;;4.63;100.00
55590;BME280;41452;42.780;23.116;2023-02-28T06:23:37;94947.50;;;4.58;100.00
55590;BME280;41452;42.780;23.116;2023-02-28T06:26:03;94953.25;;;4.53;100.00
55590;BME280;41452;42.780;23.116;2023-02-28T06:28:28;94954.84;;;4.54;100.00
55590;BME280;41452;42.780;23.116;2023-02-28T06:30:54;94954.69;;;4.56;100.00
55590;BME280;41452;42.780;23.116;2023-02-28T06:33:19;94921.38;;;4.36;100.00
55590;BME280;41452;42.780;23.116;2023-02-28T06:35:47;94968.88;;;4.68;100.00
55590;BME280;41452;42.780;23.116;2023-02-28T06:38:12;94966.53;;;4.59;100.00
55590;BME280;41452;42.780;23.116;2023-02-28T06:40:37;94971.97;;;4.49;100.00
55590;BME280;41452;42.780;23.116;2023-02-28T06:43:03;94924.03;;;4.13;100.00
55590;BME280;41452;42.780;23.116;2023-02-28T06:45:29;94964.72;;;4.44;100.00
55590;BME280;41452;42.780;23.116;2023-02-28T06:47:54;94970.13;;;4.57;100.00
55590;BME280;41452;42.780;23.116;2023-02-28T06:50:20;94981.44;;;4.65;100.00
55590;BME280;41452;42.780;23.116;2023-02-28T06:52:46;94977.41;;;4.77;100.00
55590;BME280;41452;42.780;23.116;2023-02-28T06:55:11;94977.34;;;4.85;100.00
55590;BME280;41452;42.780;23.116;2023-02-28T06:57:37;94976.16;;;4.88;100.00
55590;BME280;41452;42.780;23.116;2023-02-28T07:00:09;94974.00;;;4.91;100.00
55590;BME280;41452;42.780;23.116;2023-02-28T07:02:37;94957.75;;;4.89;100.00
55590;BME280;41452;42.780;23.116;2023-02-28T07:05:04;94987.94;;;5.13;100.00
55590;BME280;41452;42.780;23.116;2023-02-28T07:07:30;94978.03;;;5.09;100.00
55590;BME280;41452;42.780;23.116;2023-02-28T07:09:55;94985.78;;;5.17;100.00
55590;BME280;41452;42.780;23.116;2023-02-28T07:12:21;94973.91;;;5.14;100.00
55590;BME280;41452;42.780;23.116;2023-02-28T07:14:47;94978.59;;;5.19;100.00
55590;BME280;41452;42.780;23.116;2023-02-28T07:17:12;94980.91;;;5.14;100.00
55590;BME280;41452;42.780;23.116;2023-02-28T07:19:39;94981.44;;;5.24;100.00
55590;BME280;41452;42.780;23.116;2023-02-28T07:22:05;94983.50;;;5.29;100.00
55590;BME280;41452;42.780;23.116;2023-02-28T07:24:30;94979.56;;;5.33;100.00
55590;BME280;41452;42.780;23.116;2023-02-28T07:26:55;94980.72;;;5.30;100.00
55590;BME280;41452;42.780;23.116;2023-02-28T07:29:21;94957.56;;;5.21;100.00
55590;BME280;41452;42.780;23.116;2023-02-28T07:31:46;94960.63;;;5.24;100.00
55590;BME280;41452;42.780;23.116;2023-02-28T07:34:13;94973.06;;;5.44;100.00
55590;BME280;41452;42.780;23.116;2023-02-28T07:36:38;94964.06;;;5.46;100.00
55590;BME280;41452;42.780;23.116;2023-02-28T07:39:04;94966.94;;;5.51;100.00
55590;BME280;41452;42.780;23.116;2023-02-28T07:41:30;94966.75;;;5.53;100.00
55590;BME280;41452;42.780;23.116;2023-02-28T07:43:58;94972.06;;;5.60;100.00
55590;BME280;41452;42.780;23.116;2023-02-28T07:46:24;94970.25;;;5.60;100.00
55590;BME280;41452;42.780;23.116;2023-02-28T07:48:50;94965.75;;;5.54;100.00
55590;BME280;41452;42.780;23.116;2023-02-28T07:51:16;94965.03;;;5.60;100.00
55590;BME280;41452;42.780;23.116;2023-02-28T07:53:42;94964.78;;;5.55;100.00
55590;BME280;41452;42.780;23.116;2023-02-28T07:56:07;94968.13;;;5.49;100.00
55590;BME280;41452;42.780;23.116;2023-02-28T07:58:33;94968.47;;;5.46;100.00
55590;BME280;41452;42.780;23.116;2023-02-28T08:01:05;94931.88;;;5.18;100.00
55590;BME280;41452;42.780;23.116;2023-02-28T08:03:31;94957.44;;;5.29;100.00
55590;BME280;41452;42.780;23.116;2023-02-28T08:05:56;94952.94;;;5.38;100.00
55590;BME280;41452;42.780;23.116;2023-02-28T08:08:22;94974.75;;;5.51;100.00
55590;BME280;41452;42.780;23.116;2023-02-28T08:10:47;94980.94;;;5.50;100.00
55590;BME280;41452;42.780;23.116;2023-02-28T08:13:13;94967.75;;;5.52;100.00
55590;BME280;41452;42.780;23.116;2023-02-28T08:15:40;94977.00;;;5.55;100.00
55590;BME280;41452;42.780;23.116;2023-02-28T08:18:06;94942.78;;;5.43;100.00
55590;BME280;41452;42.780;23.116;2023-02-28T08:20:31;94994.47;;;5.76;100.00
55590;BME280;41452;42.780;23.116;2023-02-28T08:22:57;94985.88;;;5.60;100.00
55590;BME280;41452;42.780;23.116;2023-02-28T08:25:22;94988.84;;;5.57;100.00
55590;BME280;41452;42.780;23.116;2023-02-28T08:27:51;94985.22;;;5.73;100.00
55590;BME280;41452;42.780;23.116;2023-02-28T08:30:17;94980.16;;;5.86;100.00
55590;BME280;41452;42.780;23.116;2023-02-28T08:32:42;94981.38;;;5.90;100.00
55590;BME280;41452;42.780;23.116;2023-02-28T08:35:08;94979.56;;;5.69;100.00
55590;BME280;41452;42.780;23.116;2023-02-28T08:37:34;94984.28;;;5.81;100.00
55590;BME280;41452;42.780;23.116;2023-02-28T08:39:59;94956.72;;;5.71;100.00
55590;BME280;41452;42.780;23.116;2023-02-28T08:42:25;94983.75;;;5.85;100.00
55590;BME280;41452;42.780;23.116;2023-02-28T08:44:50;94973.66;;;5.82;100.00
55590;BME280;41452;42.780;23.116;2023-02-28T08:47:16;94972.59;;;5.92;100.00
55590;BME280;41452;42.780;23.116;2023-02-28T08:49:41;94962.16;;;5.92;100.00
55590;BME280;41452;42.780;23.116;2023-02-28T08:52:07;94968.50;;;6.04;100.00
55590;BME280;41452;42.780;23.116;2023-02-28T08:54:32;94984.09;;;6.19;100.00
55590;BME280;41452;42.780;23.116;2023-02-28T08:56:59;94983.28;;;6.18;100.00
55590;BME280;41452;42.780;23.116;2023-02-28T08:59:24;94981.31;;;6.20;100.00
55590;BME280;41452;42.780;23.116;2023-02-28T09:01:49;94982.16;;;6.27;100.00
55590;BME280;41452;42.780;23.116;2023-02-28T09:04:15;94982.47;;;6.18;100.00
55590;BME280;41452;42.780;23.116;2023-02-28T09:06:40;94972.78;;;6.12;100.00
55590;BME280;41452;42.780;23.116;2023-02-28T09:09:06;94973.22;;;6.15;100.00
55590;BME280;41452;42.780;23.116;2023-02-28T09:11:33;94948.66;;;6.03;100.00
55590;BME280;41452;42.780;23.116;2023-02-28T09:13:58;94978.38;;;6.08;100.00
55590;BME280;41452;42.780;23.116;2023-02-28T09:16:26;94975.59;;;6.10;100.00
55590;BME280;41452;42.780;23.116;2023-02-28T09:18:51;94973.91;;;6.02;100.00
55590;BME280;41452;42.780;23.116;2023-02-28T09:21:18;94962.66;;;6.02;100.00
55590;BME280;41452;42.780;23.116;2023-02-28T09:23:45;94975.22;;;6.13;100.00
55590;BME280;41452;42.780;23.116;2023-02-28T09:26:22;94972.88;;;6.18;100.00
55590;BME280;41452;42.780;23.116;2023-02-28T09:28:48;94960.88;;;6.02;100.00
55590;BME280;41452;42.780;23.116;2023-02-28T09:31:21;94980.28;;;6.21;100.00
55590;BME280;41452;42.780;23.116;2023-02-28T09:33:51;94980.13;;;6.23;100.00
55590;BME280;41452;42.780;23.116;2023-02-28T09:36:18;94969.25;;;6.19;100.00
55590;BME280;41452;42.780;23.116;2023-02-28T09:38:44;94969.31;;;6.26;100.00
55590;BME280;41452;42.780;23.116;2023-02-28T09:41:37;94936.34;;;5.97;100.00
55590;BME280;41452;42.780;23.116;2023-02-28T09:44:06;94951.25;;;6.24;100.00
55590;BME280;41452;42.780;23.116;2023-02-28T09:46:39;94952.91;;;6.32;100.00
55590;BME280;41452;42.780;23.116;2023-02-28T09:49:17;94955.75;;;6.37;100.00
55590;BME280;41452;42.780;23.116;2023-02-28T09:54:30;94958.16;;;6.39;100.00
55590;BME280;41452;42.780;23.116;2023-02-28T09:57:01;94956.88;;;6.28;100.00
55590;BME280;41452;42.780;23.116;2023-02-28T10:08:21;94943.44;;;6.53;100.00
55590;BME280;41452;42.780;23.116;2023-02-28T10:10:55;94950.09;;;6.62;100.00
55590;BME280;41452;42.780;23.116;2023-02-28T10:16:19;94943.00;;;6.77;100.00
55590;BME280;41452;42.780;23.116;2023-02-28T10:18:52;94933.97;;;6.80;100.00
55590;BME280;41452;42.780;23.116;2023-02-28T10:21:51;94908.97;;;6.64;100.00
55590;BME280;41452;42.780;23.116;2023-02-28T10:24:28;94933.22;;;6.93;100.00
55590;BME280;41452;42.780;23.116;2023-02-28T10:27:06;94937.91;;;7.04;100.00
55590;BME280;41452;42.780;23.116;2023-02-28T10:29:36;94926.06;;;7.08;100.00
55590;BME280;41452;42.780;23.116;2023-02-28T10:32:05;94927.69;;;7.16;100.00
55590;BME280;41452;42.780;23.116;2023-02-28T10:34:31;94927.34;;;7.26;100.00
55590;BME280;41452;42.780;23.116;2023-02-28T10:36:58;94918.53;;;7.33;100.00
55590;BME280;41452;42.780;23.116;2023-02-28T10:39:44;94920.19;;;7.48;100.00
55590;BME280;41452;42.780;23.116;2023-02-28T10:42:29;94911.38;;;7.55;100.00
55590;BME280;41452;42.780;23.116;2023-02-28T10:45:15;94907.78;;;7.63;100.00
55590;BME280;41452;42.780;23.116;2023-02-28T10:48:02;94903.78;;;7.74;100.00
55590;BME280;41452;42.780;23.116;2023-02-28T11:01:16;94884.47;;;7.88;100.00
55590;BME280;41452;42.780;23.116;2023-02-28T11:03:41;94880.25;;;8.00;100.00
55590;BME280;41452;42.780;23.116;2023-02-28T11:06:13;94878.06;;;8.04;100.00
55590;BME280;41452;42.780;23.116;2023-02-28T11:08:53;94881.66;;;8.10;100.00
55590;BME280;41452;42.780;23.116;2023-02-28T11:11:21;94874.44;;;8.12;100.00
55590;BME280;41452;42.780;23.116;2023-02-28T11:13:51;94865.78;;;8.18;100.00
55590;BME280;41452;42.780;23.116;2023-02-28T11:16:17;94869.41;;;8.17;100.00
55590;BME280;41452;42.780;23.116;2023-02-28T11:18:54;94865.38;;;8.21;100.00
55590;BME280;41452;42.780;23.116;2023-02-28T11:21:28;94866.38;;;8.20;100.00
55590;BME280;41452;42.780;23.116;2023-02-28T11:24:04;94853.28;;;8.13;100.00
55590;BME280;41452;42.780;23.116;2023-02-28T11:29:10;94859.53;;;8.32;100.00
55590;BME280;41452;42.780;23.116;2023-02-28T11:31:36;94857.94;;;8.45;100.00
55590;BME280;41452;42.780;23.116;2023-02-28T11:34:11;94857.13;;;8.44;100.00
55590;BME280;41452;42.780;23.116;2023-02-28T11:36:46;94852.91;;;8.50;100.00
55590;BME280;41452;42.780;23.116;2023-02-28T11:39:13;94844.25;;;8.49;100.00
55590;BME280;41452;42.780;23.116;2023-02-28T11:52:55;94848.63;;;8.62;100.00
55590;BME280;41452;42.780;23.116;2023-02-28T11:58:22;94842.56;;;8.68;100.00
55590;BME280;41452;42.780;23.116;2023-02-28T12:01:13;94839.34;;;8.66;100.00
55590;BME280;41452;42.780;23.116;2023-02-28T12:12:28;94835.94;;;8.66;100.00
55590;BME280;41452;42.780;23.116;2023-02-28T12:20:47;94824.03;;;8.77;100.00
55590;BME280;41452;42.780;23.116;2023-02-28T12:31:54;94807.91;;;8.73;100.00
55590;BME280;41452;42.780;23.116;2023-02-28T12:34:28;94822.78;;;8.86;100.00
55590;BME280;41452;42.780;23.116;2023-02-28T12:36:58;94822.75;;;8.92;100.00
55590;BME280;41452;42.780;23.116;2023-02-28T12:39:35;94814.25;;;8.97;100.00
55590;BME280;41452;42.780;23.116;2023-02-28T12:42:10;94802.22;;;8.89;100.00
55590;BME280;41452;42.780;23.116;2023-02-28T12:44:50;94817.09;;;8.96;100.00
55590;BME280;41452;42.780;23.116;2023-02-28T12:47:18;94815.09;;;8.98;100.00
55590;BME280;41452;42.780;23.116;2023-02-28T12:49:49;94815.47;;;9.01;100.00
55590;BME280;41452;42.780;23.116;2023-02-28T12:52:20;94805.41;;;8.98;100.00
55590;BME280;41452;42.780;23.116;2023-02-28T12:54:52;94812.47;;;8.98;100.00
55590;BME280;41452;42.780;23.116;2023-02-28T12:57:24;94815.91;;;8.91;100.00
55590;BME280;41452;42.780;23.116;2023-02-28T12:59:58;94810.44;;;8.93;100.00
55590;BME280;41452;42.780;23.116;2023-02-28T13:05:23;94799.75;;;9.01;100.00
55590;BME280;41452;42.780;23.116;2023-02-28T13:10:45;94801.34;;;9.02;100.00
55590;BME280;41452;42.780;23.116;2023-02-28T13:13:16;94798.53;;;8.97;100.00
55590;BME280;41452;42.780;23.116;2023-02-28T13:16:00;94793.28;;;9.04;100.00
55590;BME280;41452;42.780;23.116;2023-02-28T13:21:07;94791.22;;;9.12;100.00
55590;BME280;41452;42.780;23.116;2023-02-28T13:26:06;94792.56;;;9.22;100.00
55590;BME280;41452;42.780;23.116;2023-02-28T13:28:59;94798.88;;;9.14;100.00
55590;BME280;41452;42.780;23.116;2023-02-28T13:31:25;94784.13;;;9.20;100.00
55590;BME280;41452;42.780;23.116;2023-02-28T13:36:25;94789.19;;;9.14;100.00
55590;BME280;41452;42.780;23.116;2023-02-28T13:38:56;94775.97;;;9.03;100.00
55590;BME280;41452;42.780;23.116;2023-02-28T13:44:06;94784.84;;;8.95;100.00
55590;BME280;41452;42.780;23.116;2023-02-28T13:46:34;94777.44;;;8.85;100.00
55590;BME280;41452;42.780;23.116;2023-02-28T13:51:47;94782.78;;;9.04;100.00
55590;BME280;41452;42.780;23.116;2023-02-28T13:59:54;94772.28;;;9.10;100.00
55590;BME280;41452;42.780;23.116;2023-02-28T14:05:21;94771.69;;;9.08;100.00
55590;BME280;41452;42.780;23.116;2023-02-28T14:07:54;94768.00;;;9.16;100.00
55590;BME280;41452;42.780;23.116;2023-02-28T14:15:48;94758.03;;;9.00;100.00
55590;BME280;41452;42.780;23.116;2023-02-28T14:18:18;94745.34;;;8.97;100.00
55590;BME280;41452;42.780;23.116;2023-02-28T14:20:46;94767.03;;;9.10;100.00
55590;BME280;41452;42.780;23.116;2023-02-28T14:31:54;94782.16;;;8.70;100.00
55590;BME280;41452;42.780;23.116;2023-02-28T14:36:52;94785.03;;;8.55;100.00
55590;BME280;41452;42.780;23.116;2023-02-28T14:39:22;94788.50;;;8.42;100.00
55590;BME280;41452;42.780;23.116;2023-02-28T14:41:49;94780.63;;;8.29;100.00
55590;BME280;41452;42.780;23.116;2023-02-28T14:44:25;94785.84;;;8.29;100.00
55590;BME280;41452;42.780;23.116;2023-02-28T14:47:02;94779.00;;;8.28;100.00
55590;BME280;41452;42.780;23.116;2023-02-28T14:49:34;94774.41;;;8.23;100.00
55590;BME280;41452;42.780;23.116;2023-02-28T14:52:05;94782.06;;;8.18;100.00
55590;BME280;41452;42.780;23.116;2023-02-28T14:54:37;94761.78;;;8.00;100.00
55590;BME280;41452;42.780;23.116;2023-02-28T14:57:04;94775.44;;;8.09;100.00
55590;BME280;41452;42.780;23.116;2023-02-28T14:59:32;94775.25;;;8.04;100.00
55590;BME280;41452;42.780;23.116;2023-02-28T15:02:21;94783.88;;;7.97;100.00
55590;BME280;41452;42.780;23.116;2023-02-28T15:04:59;94786.53;;;7.91;100.00
55590;BME280;41452;42.780;23.116;2023-02-28T15:07:24;94785.50;;;7.85;100.00
55590;BME280;41452;42.780;23.116;2023-02-28T15:12:49;94784.31;;;7.68;100.00
55590;BME280;41452;42.780;23.116;2023-02-28T15:15:16;94790.34;;;7.61;100.00
55590;BME280;41452;42.780;23.116;2023-02-28T15:17:48;94792.94;;;7.55;100.00
55590;BME280;41452;42.780;23.116;2023-02-28T15:20:16;94756.97;;;7.30;100.00
55590;BME280;41452;42.780;23.116;2023-02-28T15:22:43;94773.84;;;7.41;100.00
55590;BME280;41452;42.780;23.116;2023-02-28T15:25:13;94793.94;;;7.47;100.00
55590;BME280;41452;42.780;23.116;2023-02-28T15:27:45;94797.97;;;7.36;100.00
55590;BME280;41452;42.780;23.116;2023-02-28T15:30:18;94779.03;;;7.21;100.00